Terminal Aerodrome Forecast
Issued by NWS

Home | Current Version | Previous Version | Text Only | Print | Product List | Glossary On
Versions: 1 2 3 4 5 6 7 8 9 10 11 12
000
FTUS43 KICT 261700
TAFCNU
TAF
KCNU 261732Z 2618/2718 21015G22KT P6SM BKN130
     FM270100 19008KT P6SM SCT110
     FM270900 VRB03KT P6SM SCT110
     FM271400 01010KT P6SM FEW040 BKN120=

USA.gov is the U.S. government's official web portal to all federal, state and local government web resources and services.